Terminal Aerodrome Forecast
Issued by NWS Boston, MA

Home | Current Version | Previous Version | Text Only | Print | Product List | Glossary Off
Versions: 1 2 3 4 5 6 7 8 9 10 11 12 13 14 15 16 17 18 19 20 21 22 23 24 25 26 27 28 29 30 31 32 33 34 35 36 37 38 39 40
000 FTUS41 KBOX 222334 TAFBDL TAF KBDL 222334Z 2300/2406 20010KT P6SM BKN050 WS020/25035KT FM231000 20004KT P6SM BKN050 FM231800 19005KT P6SM SCT050 FM232000 19005KT P6SM BKN070=

USA.gov is the U.S. government's official web portal to all federal, state and local government web resources and services.